.
WxDataArchive / Data Records for 2012-04-24
2012-04-23 April 2012 2012-04-25

Data Records for Tuesday, 24 April 2012

Time	Temp	Chill	HIndex	Humid	Dewpt	 Wind 	HiWind	WindDir	Rain 	Barom 
-----	----	-----	------	-----	-----	------	------	-------	-----	----- 
00:00	42.1	42.1	42.1	36	17.1	0	1	292	0.00	29.713 
00:05	41.8	41.8	41.8	37	17.5	0	1	292	0.00	29.713 
00:10	41.6	41.6	41.6	37	17.3	0	1	292	0.00	29.713 
00:15	41.5	41.5	41.5	37	17.2	0	1	292	0.00	29.710 
00:20	41.3	41.3	41.3	38	17.6	0	1	292	0.00	29.710 
00:25	41.1	41.1	41.1	38	17.5	0	2	292	0.00	29.710 
00:30	41.1	41.1	41.1	38	17.5	1	2	292	0.00	29.702 
00:35	41.1	41.1	41.1	39	18.1	0	2	292	0.00	29.702 
00:40	41.1	41.1	41.1	39	18.1	0	2	292	0.00	29.702 
00:45	41.1	41.1	41.1	39	18.1	1	3	292	0.00	29.696 
00:50	41.1	41.1	41.1	39	18.1	1	2	292	0.00	29.696 
00:55	41.1	41.1	41.1	39	18.1	1	4	292	0.00	29.696 
01:00	41.1	41.1	41.1	39	18.1	1	3	292	0.00	29.693 
01:05	41.2	41.2	41.2	39	18.1	1	3	292	0.00	29.693 
01:10	41.3	41.3	41.3	40	18.8	1	4	292	0.00	29.693 
01:15	41.5	41.5	41.5	39	18.4	1	3	292	0.00	29.687 
01:20	41.5	41.5	41.5	39	18.4	1	5	292	0.00	29.687 
01:25	41.5	41.5	41.5	40	19.0	1	3	315	0.00	29.687 
01:30	41.5	41.5	41.5	40	19.0	1	4	270	0.00	29.683 
01:35	41.5	41.5	41.5	40	19.0	2	5	270	0.00	29.683 
01:40	41.5	41.5	41.5	40	19.0	1	4	248	0.00	29.683 
01:45	41.5	41.5	41.5	40	19.0	1	3	248	0.00	29.680 
01:50	41.5	41.5	41.5	41	19.6	1	3	292	0.00	29.680 
01:55	41.3	41.3	41.3	41	19.4	1	3	292	0.00	29.680 
02:00	41.3	41.3	41.3	41	19.4	2	4	270	0.00	29.681 
02:05	41.2	41.2	41.2	41	19.3	1	4	292	0.00	29.681 
02:10	41.3	41.3	41.3	41	19.4	1	3	248	0.00	29.681 
02:15	41.2	41.2	41.2	41	19.3	1	3	315	0.00	29.678 
02:20	41.1	41.1	41.1	41	19.2	1	4	315	0.00	29.678 
02:25	41.1	41.1	41.1	41	19.2	1	4	270	0.00	29.678 
02:30	40.9	40.9	40.9	41	19.0	1	3	270	0.00	29.675 
02:35	40.8	40.8	40.8	41	18.9	1	3	270	0.00	29.675 
02:40	40.6	40.6	40.6	41	18.8	1	3	270	0.00	29.675 
02:45	40.5	40.5	40.5	42	19.2	1	3	270	0.00	29.667 
02:50	40.2	40.2	40.2	42	19.0	1	2	270	0.00	29.667 
02:55	40.1	40.1	40.1	43	19.4	2	4	270	0.00	29.667 
03:00	40.1	40.1	40.1	43	19.4	2	3	270	0.00	29.665 
03:05	39.9	39.9	39.9	43	19.2	1	4	270	0.00	29.665 
03:10	39.8	39.8	39.8	43	19.1	1	3	270	0.00	29.665 
03:15	39.6	39.6	39.6	44	19.5	1	4	270	0.00	29.665 
03:20	39.6	39.6	39.6	44	19.5	1	4	270	0.00	29.665 
03:25	39.6	39.6	39.6	44	19.5	1	4	270	0.00	29.665 
03:30	39.6	39.6	39.6	44	19.5	1	4	270	0.00	29.664 
03:35	39.6	39.6	39.6	45	20.0	1	3	270	0.00	29.664 
03:40	39.5	39.5	39.5	45	19.9	1	3	315	0.00	29.664 
03:45	39.3	39.3	39.3	46	20.3	1	4	315	0.00	29.662 
03:50	39.3	39.3	39.3	46	20.3	1	3	270	0.00	29.662 
03:55	39.2	39.2	39.2	47	20.7	1	3	270	0.00	29.662 
04:00	39.1	39.1	39.1	48	21.1	1	3	270	0.00	29.661 
04:05	38.9	38.9	38.9	48	20.9	1	3	270	0.00	29.661 
04:10	38.8	38.8	38.8	49	21.3	1	4	270	0.00	29.661 
04:15	38.6	38.6	38.6	50	21.6	1	3	270	0.00	29.663 
04:20	38.6	38.6	38.6	50	21.6	1	3	270	0.00	29.663 
04:25	38.5	38.5	38.5	51	22.0	1	3	270	0.00	29.663 
04:30	38.5	38.5	38.5	51	22.0	1	4	270	0.00	29.660 
04:35	38.3	38.3	38.3	52	22.2	1	3	270	0.00	29.660 
04:40	38.2	38.2	38.2	52	22.1	1	3	270	0.00	29.660 
04:45	38.2	38.2	38.2	53	22.6	1	4	270	0.00	29.662 
04:50	38.2	38.2	38.2	53	22.6	1	3	270	0.00	29.662 
04:55	38.0	38.0	38.0	54	22.9	1	3	270	0.00	29.662 
05:00	37.9	37.9	37.9	54	22.8	1	3	270	0.00	29.660 
05:05	37.9	37.9	37.9	55	23.2	1	4	270	0.00	29.660 
05:10	37.9	37.9	37.9	55	23.2	1	3	270	0.00	29.660 
05:15	37.9	37.9	37.9	55	23.2	1	3	292	0.00	29.659 
05:20	37.8	37.8	37.8	56	23.5	1	3	292	0.00	29.659 
05:25	37.6	37.6	37.6	57	23.8	1	3	292	0.00	29.659 
05:30	37.6	37.6	37.6	58	24.2	1	3	292	0.00	29.661 
05:35	37.5	37.5	37.5	58	24.1	1	3	292	0.00	29.661 
05:40	37.5	37.5	37.5	59	24.5	1	3	292	0.00	29.661 
05:45	37.5	37.5	37.5	60	24.9	1	3	292	0.00	29.660 
05:50	37.5	37.5	37.5	60	24.9	1	3	292	0.00	29.660 
05:55	37.6	37.6	37.6	61	25.4	2	4	292	0.00	29.660 
06:00	37.6	37.6	37.6	61	25.4	1	3	292	0.00	29.663 
06:05	37.8	37.8	37.8	61	25.6	1	2	292	0.00	29.663 
06:10	37.8	37.8	37.8	61	25.6	1	4	292	0.00	29.663 
06:15	37.9	37.9	37.9	60	25.3	1	3	292	0.00	29.665 
06:20	37.9	37.9	37.9	60	25.3	1	3	292	0.00	29.665 
06:25	38.0	38.0	38.0	60	25.4	1	3	292	0.00	29.665 
06:30	38.0	38.0	38.0	59	25.0	1	4	292	0.00	29.666 
06:35	38.0	38.0	38.0	59	25.0	1	3	292	0.00	29.666 
06:40	38.2	38.2	38.2	59	25.2	1	3	292	0.00	29.666 
06:45	38.2	38.2	38.2	59	25.2	1	3	292	0.00	29.669 
06:50	38.0	38.0	38.0	59	25.0	1	3	292	0.00	29.669 
06:55	38.0	38.0	38.0	59	25.0	1	3	292	0.00	29.669 
07:00	38.0	38.0	38.0	59	25.0	1	3	292	0.00	29.671 
07:05	38.0	38.0	38.0	59	25.0	1	3	315	0.00	29.671 
07:10	38.2	38.2	38.2	58	24.7	1	3	248	0.00	29.671 
07:15	38.3	38.3	38.3	58	24.8	2	4	270	0.00	29.670 
07:20	38.5	38.5	38.5	58	25.0	1	4	270	0.00	29.670 
07:25	38.8	38.8	38.8	57	24.9	1	3	270	0.00	29.670 
07:30	38.9	38.9	38.9	57	25.0	1	4	270	0.00	29.670 
07:35	39.2	39.2	39.2	56	24.8	1	4	270	0.00	29.670 
07:40	39.5	39.5	39.5	55	24.7	1	4	270	0.00	29.670 
07:45	39.9	39.9	39.9	54	24.6	2	6	270	0.00	29.669 
07:50	40.3	40.3	40.3	54	25.0	2	4	270	0.00	29.669 
07:55	40.8	40.8	40.8	53	25.0	2	5	270	0.00	29.669 
08:00	41.3	41.3	41.3	52	25.0	2	5	248	0.00	29.669 
08:05	41.8	41.8	41.8	51	25.0	2	4	270	0.00	29.669 
08:10	42.2	42.2	42.2	50	24.9	2	5	270	0.00	29.669 
08:15	42.8	42.8	42.8	50	25.5	2	7	248	0.00	29.671 
08:20	43.3	43.3	43.3	49	25.4	2	7	292	0.00	29.671 
08:25	43.8	43.8	43.8	48	25.4	3	5	270	0.00	29.671 
08:30	44.2	44.2	44.2	48	25.8	2	5	292	0.00	29.669 
08:35	44.8	44.8	44.8	46	25.3	3	7	270	0.00	29.669 
08:40	45.4	45.4	45.4	45	25.3	3	6	270	0.00	29.669 
08:45	45.8	45.8	45.8	45	25.7	3	7	270	0.00	29.669 
08:50	46.2	46.2	46.2	45	26.0	2	7	270	0.00	29.669 
08:55	46.7	46.7	46.7	43	25.4	3	9	270	0.00	29.669 
09:00	47.0	47.0	47.0	43	25.7	2	5	338	0.00	29.672 
09:05	47.4	47.4	47.4	43	26.0	2	6	315	0.00	29.672 
09:10	47.7	47.7	47.7	42	25.7	3	9	292	0.00	29.672 
09:15	47.9	46.4	47.9	40	24.8	4	9	292	0.00	29.676 
09:20	48.2	48.2	48.2	41	25.6	3	5	270	0.00	29.676 
09:25	48.5	48.5	48.5	40	25.3	3	5	270	0.00	29.676 
09:30	48.9	48.9	48.9	39	25.0	3	6	292	0.00	29.677 
09:35	49.5	49.5	49.5	39	25.6	3	7	270	0.00	29.677 
09:40	49.8	48.6	49.8	37	24.6	4	10	338	0.00	29.677 
09:45	50.2	50.2	50.2	36	24.3	4	11	270	0.00	29.679 
09:50	50.5	50.5	50.5	36	24.6	3	6	315	0.00	29.679 
09:55	51.0	51.0	51.0	34	23.6	3	8	338	0.00	29.679 
10:00	51.6	51.6	51.6	34	24.2	3	6	292	0.00	29.679 
10:05	51.9	51.9	51.9	32	23.0	3	10	292	0.00	29.679 
10:10	52.3	52.3	52.3	31	22.6	3	10	270	0.00	29.679 
10:15	52.5	52.5	52.5	32	23.5	3	7	292	0.00	29.685 
10:20	52.8	52.8	52.8	32	23.8	3	12	270	0.00	29.685 
10:25	52.9	52.9	52.9	31	23.1	3	9	315	0.00	29.685 
10:30	53.2	53.2	53.2	31	23.4	3	10	315	0.00	29.681 
10:35	53.5	53.5	53.5	30	22.8	4	13	315	0.00	29.681 
10:40	53.8	53.8	53.8	29	22.3	4	9	292	0.00	29.681 
10:45	53.9	53.9	53.9	29	22.4	3	9	338	0.00	29.688 
10:50	54.4	54.4	54.4	28	22.0	3	8	270	0.00	29.688 
10:55	54.8	54.8	54.8	30	24.0	2	7	270	0.00	29.688 
11:00	55.1	55.1	55.1	28	22.6	3	8	270	0.00	29.693 
11:05	55.1	55.1	55.1	28	22.6	3	7	292	0.00	29.693 
11:10	55.4	55.4	55.4	30	24.5	2	6	338	0.00	29.693 
11:15	55.6	55.6	55.6	28	23.0	4	11	0	0.00	29.695 
11:20	55.6	55.6	55.6	28	23.0	3	9	292	0.00	29.695 
11:25	55.6	55.6	55.6	26	21.3	5	15	315	0.00	29.695 
11:30	55.6	55.6	55.6	28	23.0	4	10	292	0.00	29.698 
11:35	55.7	55.7	55.7	27	22.2	5	10	292	0.00	29.698 
11:40	55.9	55.9	55.9	27	22.4	4	11	292	0.00	29.698 
11:45	56.3	56.3	56.3	25	20.9	4	14	270	0.00	29.694 
11:50	56.7	56.7	56.7	25	21.3	4	14	338	0.00	29.694 
11:55	57.2	57.2	57.2	27	23.5	3	6	270	0.00	29.694 
12:00	57.3	57.3	57.3	26	22.7	3	7	292	0.00	29.695 
12:05	58.1	58.1	58.1	26	23.4	3	9	292	0.00	29.695 
12:10	57.5	57.5	57.5	24	21.0	4	10	292	0.00	29.695 
12:15	57.3	57.3	57.3	25	21.8	4	12	292	0.00	29.695 
12:20	57.5	57.5	57.5	25	22.0	3	8	315	0.00	29.695 
12:25	58.0	58.0	58.0	26	23.3	4	10	315	0.00	29.695 
12:30	57.8	57.8	57.8	24	21.3	4	10	270	0.00	29.693 
12:35	58.0	58.0	58.0	25	22.4	3	9	338	0.00	29.693 
12:40	58.3	58.3	58.3	24	21.7	4	13	315	0.00	29.693 
12:45	58.1	58.1	58.1	25	22.5	3	6	315	0.00	29.696 
12:50	58.1	58.1	58.1	24	21.5	5	12	270	0.00	29.696 
12:55	58.4	58.4	58.4	23	20.8	5	11	270	0.00	29.696 
13:00	58.4	58.4	58.4	24	21.8	5	11	270	0.00	29.693 
13:05	58.6	58.6	58.6	24	21.9	4	10	292	0.00	29.693 
13:10	58.3	58.3	58.3	23	20.7	5	10	292	0.00	29.693 
13:15	58.6	58.6	58.6	24	21.9	4	11	270	0.00	29.693 
13:20	58.7	58.7	58.7	24	22.0	4	11	270	0.00	29.693 
13:25	59.3	59.3	59.3	25	23.5	4	9	292	0.00	29.693 
13:30	59.5	59.5	59.5	22	20.6	4	10	270	0.00	29.686 
13:35	59.3	59.3	59.3	23	21.5	4	11	270	0.00	29.686 
13:40	59.3	59.3	59.3	22	20.5	4	7	315	0.00	29.686 
13:45	59.8	59.8	59.8	23	21.9	4	9	248	0.00	29.678 
13:50	59.6	59.6	59.6	21	19.6	5	11	292	0.00	29.678 
13:55	59.5	59.5	59.5	23	21.7	3	7	338	0.00	29.678 
14:00	59.8	59.8	59.8	23	21.9	3	7	315	0.00	29.678 
14:05	60.4	60.4	60.4	24	23.4	3	9	270	0.00	29.678 
14:10	60.2	60.2	60.2	22	21.2	3	7	315	0.00	29.678 
14:15	60.4	60.4	60.4	22	21.4	4	8	270	0.00	29.676 
14:20	60.4	60.4	60.4	22	21.4	5	13	292	0.00	29.676 
14:25	60.4	60.4	60.4	23	22.4	3	9	315	0.00	29.676 
14:30	60.4	60.4	60.4	23	22.4	4	10	315	0.00	29.675 
14:35	60.7	60.7	60.7	24	23.7	3	7	270	0.00	29.675 
14:40	60.9	60.9	60.9	23	22.9	4	9	270	0.00	29.675 
14:45	60.5	60.5	60.5	22	21.5	4	7	292	0.00	29.674 
14:50	60.2	60.2	60.2	23	22.3	4	9	338	0.00	29.674 
14:55	60.7	60.7	60.7	25	24.7	3	6	292	0.00	29.674 
15:00	60.9	60.9	60.9	23	22.9	5	12	270	0.00	29.676 
15:05	60.4	60.4	60.4	23	22.4	4	11	315	0.00	29.676 
15:10	60.4	60.4	60.4	22	21.4	4	8	270	0.00	29.676 
15:15	60.7	60.7	60.7	22	21.6	4	7	270	0.00	29.675 
15:20	60.7	60.7	60.7	23	22.7	3	7	270	0.00	29.675 
15:25	60.5	60.5	60.5	22	21.5	4	9	292	0.00	29.675 
15:30	60.7	60.7	60.7	24	23.7	5	12	270	0.00	29.677 
15:35	60.4	60.4	60.4	23	22.4	4	9	270	0.00	29.677 
15:40	60.7	60.7	60.7	24	23.7	3	7	315	0.00	29.677 
15:45	60.7	60.7	60.7	23	22.7	4	10	270	0.00	29.678 
15:50	60.9	60.9	60.9	23	22.9	4	7	270	0.00	29.678 
15:55	61.0	61.0	61.0	22	21.9	4	10	248	0.00	29.678 
16:00	60.9	60.9	60.9	23	22.9	3	9	338	0.00	29.680 
16:05	60.9	60.9	60.9	24	23.9	2	5	315	0.00	29.680 
16:10	60.7	60.7	60.7	22	21.6	4	10	315	0.00	29.680 
16:15	60.9	60.9	60.9	23	22.9	3	7	270	0.00	29.673 
16:20	61.2	61.2	61.2	24	24.1	3	9	270	0.00	29.673 
16:25	61.0	61.0	61.0	22	21.9	4	9	270	0.00	29.673 
16:30	60.9	60.9	60.9	22	21.8	4	9	315	0.00	29.678 
16:35	60.5	60.5	60.5	22	21.5	4	9	315	0.00	29.678 
16:40	60.5	60.5	60.5	23	22.5	3	7	270	0.00	29.678 
16:45	60.2	60.2	60.2	23	22.3	4	9	270	0.00	29.677 
16:50	60.2	60.2	60.2	21	20.1	4	13	315	0.00	29.677 
16:55	60.5	60.5	60.5	23	22.5	3	9	292	0.00	29.677 
17:00	60.7	60.7	60.7	22	21.6	4	9	270	0.00	29.679 
17:05	60.7	60.7	60.7	22	21.6	5	10	270	0.00	29.679 
17:10	60.7	60.7	60.7	22	21.6	3	7	270	0.00	29.679 
17:15	60.2	60.2	60.2	21	20.1	4	9	270	0.00	29.678 
17:20	59.5	59.5	59.5	22	20.6	5	10	270	0.00	29.678 
17:25	59.2	59.2	59.2	22	20.4	3	7	270	0.00	29.678 
17:30	59.0	59.0	59.0	24	22.3	3	6	292	0.00	29.679 
17:35	58.9	58.9	58.9	23	21.2	4	6	270	0.00	29.679 
17:40	58.7	58.7	58.7	25	23.0	3	7	270	0.00	29.679 
17:45	58.6	58.6	58.6	23	20.9	4	6	270	0.00	29.680 
17:50	58.4	58.4	58.4	24	21.8	2	4	270	0.00	29.680 
17:55	58.4	58.4	58.4	23	20.8	2	6	315	0.00	29.680 
18:00	58.4	58.4	58.4	23	20.8	2	5	270	0.00	29.686 
18:05	58.4	58.4	58.4	23	20.8	2	7	0	0.00	29.686 
18:10	58.3	58.3	58.3	23	20.7	2	6	292	0.00	29.686 
18:15	58.3	58.3	58.3	24	21.7	3	6	315	0.00	29.690 
18:20	58.4	58.4	58.4	23	20.8	3	7	315	0.00	29.690 
18:25	58.3	58.3	58.3	24	21.7	3	6	315	0.00	29.690 
18:30	58.3	58.3	58.3	22	19.6	3	7	270	0.00	29.696 
18:35	58.1	58.1	58.1	23	20.5	2	5	292	0.00	29.696 
18:40	58.0	58.0	58.0	23	20.4	2	8	338	0.00	29.696 
18:45	57.8	57.8	57.8	24	21.3	1	4	315	0.00	29.696 
18:50	57.8	57.8	57.8	25	22.2	1	3	338	0.00	29.696 
18:55	57.6	57.6	57.6	24	21.1	3	6	270	0.00	29.696 
19:00	57.5	57.5	57.5	24	21.0	3	6	270	0.00	29.696 
19:05	57.2	57.2	57.2	24	20.7	3	7	315	0.00	29.696 
19:10	57.2	57.2	57.2	24	20.7	3	6	270	0.00	29.696 
19:15	57.2	57.2	57.2	23	19.7	2	5	248	0.00	29.695 
19:20	57.3	57.3	57.3	24	20.8	2	4	248	0.00	29.695 
19:25	57.5	57.5	57.5	24	21.0	1	3	270	0.00	29.695 
19:30	57.3	57.3	57.3	24	20.8	1	4	292	0.00	29.695 
19:35	57.2	57.2	57.2	24	20.7	1	4	292	0.00	29.695 
19:40	57.0	57.0	57.0	24	20.6	2	5	270	0.00	29.695 
19:45	56.7	56.7	56.7	24	20.3	1	2	270	0.00	29.700 
19:50	56.5	56.5	56.5	25	21.1	0	3	270	0.00	29.700 
19:55	56.2	56.2	56.2	25	20.9	1	3	270	0.00	29.700 
20:00	55.9	55.9	55.9	25	20.6	0	2	270	0.00	29.704 
20:05	55.6	55.6	55.6	26	21.3	0	2	270	0.00	29.704 
20:10	55.3	55.3	55.3	26	21.0	0	1	270	0.00	29.704 
20:15	55.1	55.1	55.1	26	20.8	0	1	270	0.00	29.706 
20:20	54.8	54.8	54.8	27	21.5	0	3	270	0.00	29.706 
20:25	54.7	54.7	54.7	27	21.4	0	2	270	0.00	29.706 
20:30	54.4	54.4	54.4	28	22.0	0	1	270	0.00	29.705 
20:35	54.1	54.1	54.1	28	21.7	0	1	270	0.00	29.705 
20:40	53.9	53.9	53.9	27	20.7	0	1	270	0.00	29.705 
20:45	53.6	53.6	53.6	28	21.3	0	1	270	0.00	29.708 
20:50	53.2	53.2	53.2	29	21.8	0	0	---	0.00	29.708 
20:55	52.8	52.8	52.8	29	21.4	0	0	---	0.00	29.708 
21:00	52.3	52.3	52.3	30	21.8	0	0	---	0.00	29.708 
21:05	51.9	51.9	51.9	31	22.2	0	0	---	0.00	29.708 
21:10	51.4	51.4	51.4	32	22.5	0	0	---	0.00	29.708 
21:15	50.8	50.8	50.8	34	23.5	0	0	---	0.00	29.708 
21:20	50.4	50.4	50.4	35	23.8	0	0	---	0.00	29.708 
21:25	49.9	49.9	49.9	36	24.0	0	0	---	0.00	29.708 
21:30	49.4	49.4	49.4	38	24.9	0	0	---	0.00	29.715 
21:35	48.8	48.8	48.8	38	24.3	0	0	---	0.00	29.715 
21:40	48.2	48.2	48.2	40	25.0	0	0	---	0.00	29.715 
21:45	47.7	47.7	47.7	40	24.6	0	0	---	0.00	29.722 
21:50	47.4	47.4	47.4	42	25.5	0	0	---	0.00	29.722 
21:55	46.8	46.8	46.8	43	25.5	0	0	---	0.00	29.722 
22:00	46.4	46.4	46.4	45	26.2	0	0	---	0.00	29.727 
22:05	46.0	46.0	46.0	46	26.4	0	0	---	0.00	29.727 
22:10	45.5	45.5	45.5	47	26.5	0	0	---	0.00	29.727 
22:15	45.2	45.2	45.2	48	26.7	0	0	---	0.00	29.731 
22:20	44.9	44.9	44.9	49	26.9	0	0	---	0.00	29.731 
22:25	44.8	44.8	44.8	50	27.3	0	0	---	0.00	29.731 
22:30	44.5	44.5	44.5	50	27.0	0	0	---	0.00	29.731 
22:35	44.3	44.3	44.3	51	27.3	0	0	---	0.00	29.731 
22:40	44.2	44.2	44.2	52	27.7	0	0	---	0.00	29.731 
22:45	44.1	44.1	44.1	53	28.1	0	0	---	0.00	29.736 
22:50	43.9	43.9	43.9	53	27.9	0	0	---	0.00	29.736 
22:55	43.8	43.8	43.8	55	28.7	0	0	---	0.00	29.736 
23:00	43.6	43.6	43.6	55	28.5	0	0	---	0.00	29.737 
23:05	43.5	43.5	43.5	57	29.3	0	0	---	0.00	29.737 
23:10	43.3	43.3	43.3	58	29.5	0	0	---	0.00	29.737 
23:15	43.3	43.3	43.3	58	29.5	0	0	---	0.00	29.738 
23:20	43.2	43.2	43.2	58	29.4	0	0	---	0.00	29.738 
23:25	43.2	43.2	43.2	58	29.4	0	0	---	0.00	29.738 
23:30	43.2	43.2	43.2	58	29.4	0	0	---	0.00	29.736 
23:35	43.1	43.1	43.1	59	29.8	0	0	---	0.00	29.736 
23:40	43.1	43.1	43.1	60	30.2	0	0	---	0.00	29.736 
23:45	42.9	42.9	42.9	60	30.0	0	0	---	0.00	29.726 
23:50	42.8	42.8	42.8	59	29.5	0	0	---	0.00	29.726 
23:55	42.9	42.9	42.9	55	27.9	0	1	270	0.00	29.726 

CoCoRaHS
IN-AL-39
A2 Web Hosting
Creative Commons License
GoDaddy
search engine by freefind advanced

loaded 2018-11-16 11:22:39 • last modified 2010-11-18 10:43:29
Privacy PolicyDisclaimer
• wx.awcolley.com is powered by PmWiki v.2002016 •
• all content (unless otherwise noted) © 2018 A W Colley